logo
Rechercher aéroport 
image banner adimage banner adimage banner ad
image banner ad

YWDM - Waddamana

Situé à Waddamana, Australia

ICAO - , IATA -

Données fournies par Airmate  

Information générale

Coordonnées: S42°7'46" E146°44'45"
Élévation : 1894 feet MSL.
Variation magnétique : 14° East
Voir autres Aéroports à Tasmania

Données opérationnelles

Special qualification required
Heure actuelle UTC:
Heure actuelle locale:
Météo à : YMLT - Launceston ( 76 km )
METAR: YMLT 251800Z AUTO 19006KT 9999 // NCD 00/M00 Q1027 RF00.0/000.0
TAF: TAF YMLT 251718Z 2518/2618 17005KT CAVOK FM260400 34008KT 9999 SCT030 FM260900 35008KT 9999 SCT020 BKN030 FM261300 35008KT 9999 SCT010 BKN020 FM261600 35010KT 9999 FEW010 TEMPO 2613/2616 9999 BKN008
Voir NOTAMs / SUP AIP / TFR affectant cet aéroport [VIEW]
Fréquences de communication: [VIEW]

Pistes:

Coordonnées de l'aéroport

Adresse: Waddamana Australia

Vue satellite de YWDM